ADDS TAF Board (Experimental) INFO Settings
IDs: Format: Expanded Condensed

KCLT - Charlotte/Douglas In, NC, US

Issued at 1133 UTC 06 May 2016
Updated at: 1500 UTC 06 May 2016
Time1452Z 06/15Z 06/16Z 06/17Z 06/18Z 06/19Z 06/20Z 06/21Z 06/22Z 06/23Z 07/00Z 07/01Z 07/02Z 07/03Z
Type OBS PRVL PRVL PRVL PRVL PRVL PRVL PRVL PRVL PRVL PRVL PRVL PRVL PRVL
VIS 10 >6 >6 >6 >6 >6 >6 >6 >6 >6 >6 >6 >6 >6
CIG -- 150 150 150 150 150 150 150 150 150 250 250 250 250
Cover SCT BKN BKN BKN BKN BKN BKN BKN BKN BKN BKN BKN BKN BKN
FltCat VFR VFR VFR VFR VFR VFR VFR VFR VFR VFR VFR VFR VFR VFR
WX -- -- -- -- -- -- -- -- -- -- -- -- -- --
WDir 320 340 340 340 340 340 340 340 340 340 330 330 330 330
WSpd 11 12 12 12 12 12 12 12 12 12 6 6 6 6
WGst 16 20 20 20 20 20 20 20 20 20 -- -- -- --
R05/23
XWnd 11 11 11 11 11 11 11 11 11 11 6 6 6 6
XGst 16 19 19 19 19 19 19 19 19 19 -- -- -- --
HWnd 0 4 4 4 4 4 4 4 4 4 1 1 1 1
HGst 1 7 7 7 7 7 7 7 7 7 -- -- -- --
R18/36
XWnd -6 -3 -3 -3 -3 -3 -3 -3 -3 -3 -3 -3 -3 -3
XGst -9 -6 -6 -6 -6 -6 -6 -6 -6 -6 -- -- -- --
HWnd -9 -12 -12 -12 -12 -12 -12 -12 -12 -12 -5 -5 -5 -5
HGst -13 -19 -19 -19 -19 -19 -19 -19 -19 -19 -- -- -- --

NOTE: TEMPO conditions in [brackets]. Keep in mind TEMPO conditions might be better (lower impact) than prevailing conditions.

Raw TAF
KCLT 061133Z 0612/0712 30007KT P6SM SCT050 BKN250
  FM061500 34012G20KT P6SM SCT045 BKN150
  FM070000 33006KT P6SM BKN250


Raw METAR
KCLT 061452Z 32011G16KT 10SM SCT044 18/08 A2982 RMK AO2 SLP093 T01780083 51012
KCLT 061352Z 33007KT 10SM FEW075 SCT250 16/09 A2981 RMK AO2 SLP090 T01610089
KCLT 061252Z 32008KT 10SM FEW075 SCT250 13/09 A2979 RMK AO2 SLP087 T01330089
KCLT 061152Z 30005KT 10SM FEW075 SCT250 11/08 A2978 RMK AO2 SLP082 60000 70024 T01110083 10111 20083 53016

METAR Board
Radar Display
Forecast Discussion

TAF Board Legend

Potential Impact
Threat None Slight Moderate High
Visibility (sm) ≥5.1 5.1>X≥3 3>X≥1 <1
Ceiling (100 ft) ≥30.1 30.1>X≥10 10>X≥5 <5
Wind Speed (kt) <10 10≤X<20 20≤X<30 ≥30
Wind Gust (kt) <15 15≤X<25 25≤X<35 ≥35
Weather No Wx Reported VCTS,-TS,-FZRA,SN TS,FZRA +TS,+FZRA,+SN